Weather History for Milford, UT

Change the Weather History Date:

Sunday, February 10, 2013

  Actual Average Record
Temperature  
Mean Temperature 21 °F -  
Max Temperature 28 °F 40 °F 60 °F (2012)
Min Temperature 12 °F 19 °F 5 °F (2004)
Degree Days  
Heating Degree Days 44    
Moisture  
Dew Point 21 °F    
Average Humidity 84    
Maximum Humidity 93    
Minimum Humidity 73    
Precipitation  
Precipitation 0.08 in - - ()
Sea Level Pressure  
Sea Level Pressure 29.91 in    
Wind  
Wind Speed 6 mph (North)    
Max Wind Speed 18 mph    
Max Gust Speed 20 mph    
Visibility 4 miles    
Events Fog , Snow    
Averages and records for this station are not official NWS values.
T = Trace of Precipitation, MM = Missing Value Source: NWS Daily Summary

Daily Weather History Graph

Daily Weather History Graph

Search for Another Location

Airport:

Trip Planner

Search our weather history database for the weather conditions in past years. The results will help you decide how hot, cold, wet, or windy it might be!

Date:

Astronomy

Feb. 10, 2013 Rise Set
Actual Time 7:28 AM MST 6:05 PM MST
Civil Twilight 7:00 AM MST 6:32 PM MST
Nautical Twilight 6:29 AM MST 7:03 PM MST
Astronomical Twilight 5:58 AM MST 7:34 PM MST
Moon 7:21 AM MST (2/10) 6:58 PM MST (2/10)
Length of Visible Light 11h 31m
Length of Day
10h 37m
New Moon, 0% of the Moon is Illuminated
Feb 10
New Moon
Feb 17
First Quarter
Feb 25
Full
Mar 4
Last Quarter
Mar 11
New

Hourly Weather History & Observations

Time (MST) Temp. Windchill Dew Point Humidity Pressure Visibility Wind Dir Wind Speed Gust Speed Precip Events Conditions
12:08 AM 26.6 °F 21.2 °F 23.0 °F 86% 29.88 in 3.0 mi North 4.6 mph - 0.00 in Snow Light Snow
12:17 AM 26.6 °F 22.6 °F 23.0 °F 86% 29.88 in 2.0 mi North 3.5 mph - 0.01 in Snow Light Snow
12:38 AM 26.6 °F 21.2 °F 23.0 °F 86% 29.88 in 3.0 mi NNE 4.6 mph - 0.01 in Snow Light Snow
12:52 AM 25.0 °F 19.3 °F 23.0 °F 92% 29.93 in 3.0 mi North 4.6 mph - 0.01 in Snow Light Snow
1:52 AM 24.1 °F 18.2 °F 21.9 °F 91% 29.91 in 6.0 mi NNW 4.6 mph - 0.00 in Snow Light Snow
2:52 AM 24.1 °F 18.2 °F 21.9 °F 91% 29.90 in 10.0 mi NW 4.6 mph - 0.00 in   Overcast
3:52 AM 25.0 °F 18.1 °F 21.9 °F 88% 29.90 in 10.0 mi NW 5.8 mph - N/A   Overcast
4:09 AM 24.8 °F 17.9 °F 23.0 °F 93% 29.84 in 2.5 mi NW 5.8 mph - 0.00 in Snow Light Snow
4:16 AM 24.8 °F 19.1 °F 21.2 °F 86% 29.84 in 1.5 mi NNW 4.6 mph - 0.00 in Snow Light Snow
4:29 AM 24.8 °F 20.5 °F 23.0 °F 93% 29.84 in 2.0 mi NNW 3.5 mph - 0.01 in Snow Light Snow
4:57 AM 24.8 °F 20.5 °F 23.0 °F 93% 29.84 in 1.5 mi NNW 3.5 mph - 0.00 in Snow Light Snow
5:07 AM 24.8 °F 20.5 °F 23.0 °F 93% 29.84 in 1.8 mi NW 3.5 mph - 0.00 in Snow Light Snow
5:36 AM 24.8 °F - 23.0 °F 93% 29.84 in 1.5 mi Calm Calm - 0.01 in Snow Light Snow
5:52 AM 25.0 °F - 21.9 °F 88% 29.89 in 1.2 mi Calm Calm - 0.02 in Snow Light Snow
6:00 AM 24.8 °F - 23.0 °F 93% 29.84 in 1.8 mi Calm Calm - 0.00 in Snow Light Snow
6:06 AM 24.8 °F - 23.0 °F 93% 29.84 in 2.5 mi Calm Calm - 0.00 in Snow Light Snow
6:25 AM 24.8 °F - 21.2 °F 86% 29.83 in 1.8 mi Calm Calm - 0.00 in Snow Light Snow
6:47 AM 24.8 °F - 23.0 °F 93% 29.84 in 1.8 mi Calm Calm - 0.01 in Snow Light Snow
6:52 AM 25.0 °F - 23.0 °F 92% 29.90 in 1.8 mi Calm Calm - 0.01 in Snow Light Snow
7:22 AM 24.8 °F - 23.0 °F 93% 29.84 in 2.0 mi Calm Calm - 0.00 in Snow Light Snow
7:45 AM 24.8 °F 20.5 °F 21.2 °F 86% 29.84 in 1.8 mi North 3.5 mph - 0.01 in Snow Light Snow
7:52 AM 25.0 °F 20.7 °F 21.9 °F 88% 29.91 in 1.2 mi North 3.5 mph - 0.01 in Snow Light Snow
8:08 AM 24.8 °F 19.1 °F 21.2 °F 86% 29.85 in 1.8 mi North 4.6 mph - 0.00 in Snow Light Snow
8:17 AM 24.8 °F 19.1 °F 21.2 °F 86% 29.85 in 1.2 mi North 4.6 mph - 0.00 in Snow Light Snow
8:33 AM 24.8 °F 19.1 °F 21.2 °F 86% 29.85 in 1.5 mi NNE 4.6 mph - 0.01 in Snow Light Snow
8:52 AM 26.1 °F 21.9 °F 23.0 °F 88% 29.92 in 1.0 mi NNE 3.5 mph - 0.01 in Snow Light Snow
9:01 AM 26.6 °F 21.2 °F 21.2 °F 80% 29.86 in 0.8 mi NNE 4.6 mph - 0.00 in Snow Light Snow
9:10 AM 26.6 °F 19.1 °F 21.2 °F 80% 29.86 in 1.0 mi North 6.9 mph - 0.00 in Snow Light Snow
9:20 AM 26.6 °F 20.0 °F 21.2 °F 80% 29.86 in 1.5 mi NNE 5.8 mph - 0.00 in Snow Light Snow
9:25 AM 26.6 °F 18.2 °F 21.2 °F 80% 29.86 in 1.5 mi North 8.1 mph - 0.01 in Snow Light Snow
9:33 AM 26.6 °F 19.1 °F 21.2 °F 80% 29.86 in 2.0 mi North 6.9 mph - 0.01 in Snow Light Snow
9:47 AM 26.6 °F 20.0 °F 21.2 °F 80% 29.86 in 3.0 mi North 5.8 mph - 0.01 in Snow Light Snow
9:52 AM 26.1 °F 19.4 °F 21.9 °F 84% 29.94 in 4.0 mi North 5.8 mph - 0.01 in Snow Light Snow
10:15 AM 26.6 °F 20.0 °F 21.2 °F 80% 29.87 in 10.0 mi North 5.8 mph - 0.00 in   Overcast
10:43 AM 26.6 °F 20.0 °F 23.0 °F 86% 29.87 in 3.0 mi North 5.8 mph - 0.00 in Snow Light Snow
10:46 AM 26.6 °F 20.0 °F 23.0 °F 86% 29.87 in 4.0 mi North 5.8 mph - 0.00 in Snow Light Snow
10:52 AM 27.0 °F 19.5 °F 21.9 °F 81% 29.94 in 7.0 mi North 6.9 mph - 0.00 in Snow Light Snow
11:16 AM 26.6 °F 18.2 °F 21.2 °F 80% 29.88 in 10.0 mi North 8.1 mph - 0.00 in   Overcast
11:44 AM 26.6 °F 16.2 °F 23.0 °F 86% 29.88 in 2.5 mi North 11.5 mph - 0.00 in Snow Light Snow
11:52 AM 27.0 °F 17.3 °F 23.0 °F 85% 29.94 in 2.5 mi North 10.4 mph - 0.00 in Snow Light Snow
12:37 PM 26.6 °F 17.5 °F 21.2 °F 80% 29.88 in 2.5 mi North 9.2 mph - 0.00 in Snow Light Snow
12:52 PM 28.0 °F 18.6 °F 21.9 °F 78% 29.94 in 1.8 mi NNE 10.4 mph - 0.00 in Snow Light Snow
1:21 PM 28.4 °F 19.1 °F 23.0 °F 80% 29.87 in 1.0 mi NNE 10.4 mph - 0.00 in Snow Light Snow
1:45 PM 28.4 °F 18.5 °F 23.0 °F 80% 29.87 in 2.5 mi North 11.5 mph - 0.00 in Snow Light Snow
1:52 PM 28.0 °F 18.6 °F 23.0 °F 81% 29.94 in 2.5 mi NNE 10.4 mph - 0.00 in Snow Light Snow
1:58 PM 28.4 °F 18.5 °F 21.2 °F 74% 29.87 in 2.0 mi North 11.5 mph - 0.01 in Snow Light Snow
2:04 PM 28.4 °F 18.0 °F 23.0 °F 80% 29.87 in 3.0 mi North 12.7 mph - 0.01 in Snow Light Snow
2:15 PM 28.4 °F 19.1 °F 21.2 °F 74% 29.87 in 2.5 mi NNE 10.4 mph - 0.01 in Snow Light Snow
2:23 PM 28.4 °F 19.1 °F 21.2 °F 74% 29.87 in 3.0 mi NNE 10.4 mph - 0.01 in Snow Light Snow
2:32 PM 28.4 °F 19.1 °F 23.0 °F 80% 29.87 in 2.5 mi NNE 10.4 mph - 0.01 in Snow Light Snow
2:38 PM 28.4 °F 18.5 °F 23.0 °F 80% 29.87 in 3.0 mi North 11.5 mph - 0.01 in Snow Light Snow
2:52 PM 28.0 °F 18.1 °F 21.9 °F 78% 29.94 in 8.0 mi North 11.5 mph - 0.01 in   Overcast
3:19 PM 28.4 °F 19.1 °F 23.0 °F 80% 29.88 in 6.0 mi North 10.4 mph - 0.00 in Snow Light Snow
3:35 PM 26.6 °F 17.5 °F 23.0 °F 86% 29.88 in 6.0 mi NNE 9.2 mph - 0.00 in Snow Light Snow
3:52 PM 28.0 °F 17.5 °F 21.9 °F 78% 29.95 in 10.0 mi NNE 12.7 mph - 0.00 in   Overcast
4:15 PM 26.6 °F 16.2 °F 21.2 °F 80% 29.89 in 9.0 mi North 11.5 mph - 0.00 in   Overcast
4:52 PM 26.1 °F 15.0 °F 21.0 °F 81% 29.97 in 10.0 mi North 12.7 mph - 0.00 in   Partly Cloudy
5:06 PM 26.6 °F 16.2 °F 21.2 °F 80% 29.90 in 2.5 mi North 11.5 mph - 0.00 in Snow Light Snow
5:14 PM 26.6 °F 16.2 °F 23.0 °F 86% 29.90 in 1.2 mi North 11.5 mph - 0.00 in Snow Light Snow
5:18 PM 26.6 °F 16.2 °F 23.0 °F 86% 29.91 in 1.2 mi North 11.5 mph - 0.00 in Snow Light Snow
5:30 PM 26.6 °F 15.2 °F 23.0 °F 86% 29.91 in 1.5 mi North 13.8 mph - 0.00 in Snow Light Snow
5:40 PM 26.6 °F 15.7 °F 23.0 °F 86% 29.91 in 1.2 mi North 12.7 mph - 0.00 in Snow Light Snow
5:46 PM 26.6 °F 15.7 °F 23.0 °F 86% 29.91 in 1.2 mi North 12.7 mph - 0.00 in Snow Light Snow
5:53 PM 26.6 °F 16.8 °F 23.0 °F 86% 29.92 in 0.8 mi North 10.4 mph - 0.00 in Snow Light Snow
6:00 PM 26.6 °F 14.7 °F 23.0 °F 86% 29.92 in 0.5 mi North 15.0 mph 19.6 mph 0.01 in Fog , Snow Light Snow
6:16 PM 24.8 °F 11.1 °F 21.2 °F 86% 29.92 in 2.5 mi North 18.4 mph - 0.02 in Snow Light Snow
6:26 PM 24.8 °F 11.9 °F 21.2 °F 86% 29.93 in 2.0 mi North 16.1 mph - 0.02 in Snow Light Snow
6:35 PM 24.8 °F 11.1 °F 19.4 °F 80% 29.93 in 5.0 mi North 18.4 mph - 0.02 in Snow Light Snow
6:52 PM 24.1 °F 12.0 °F 18.0 °F 77% 30.02 in 9.0 mi North 13.8 mph - 0.02 in Snow Light Snow
7:52 PM 23.0 °F 12.4 °F 18.0 °F 81% 30.04 in 10.0 mi North 10.4 mph - 0.00 in   Overcast
8:04 PM 24.8 °F 14.6 °F 17.6 °F 74% 29.96 in 10.0 mi North 10.4 mph - N/A   Overcast
8:25 PM 24.8 °F 14.0 °F 17.6 °F 74% 29.96 in 9.0 mi NNE 11.5 mph - 0.00 in   Overcast
8:52 PM 23.0 °F 14.7 °F 18.0 °F 81% 30.05 in 10.0 mi NNE 6.9 mph - 0.00 in   Overcast
9:52 PM 19.0 °F 10.0 °F 15.1 °F 85% 30.08 in 10.0 mi North 6.9 mph - 0.00 in   Overcast
10:52 PM 14.0 °F 6.5 °F 10.0 °F 84% 30.10 in 10.0 mi WNW 4.6 mph - N/A   Overcast
11:52 PM 12.9 °F 3.8 °F 8.1 °F 81% 30.11 in 10.0 mi NW 5.8 mph - N/A   Clear